Time;durP1;ratioP1;P1;durP2;ratioP2;P2;SDS_P1;SDS_P2;PMS_P1;PMS_P2;Temp;Humidity;BMP_temperature;BMP_pressure;BME280_temperature;BME280_humidity;BME280_pressure;Samples;Min_cycle;Max_cycle;Signal;HPM_P1;HPM_P2
2022/04/29 00:02:12;;;;;;;4.17;3.63;;;9.20;99.90;;;;;;5053106;28;20210;-59
2022/04/29 00:04:39;;;;;;;4.20;3.80;;;9.20;99.90;;;;;;5052970;28;20209;-58
2022/04/29 00:07:08;;;;;;;4.50;3.57;;;9.20;99.90;;;;;;5052983;28;20209;-59
2022/04/29 00:09:35;;;;;;;4.77;4.20;;;9.10;99.90;;;;;;5052891;28;20252;-58
2022/04/29 00:12:05;;;;;;;4.20;3.80;;;9.10;99.90;;;;;;5052892;28;20677;-58
2022/04/29 00:14:32;;;;;;;5.47;3.83;;;9.00;99.90;;;;;;5052793;28;20232;-58
2022/04/29 00:16:58;;;;;;;4.03;3.63;;;9.00;99.90;;;;;;5052608;28;20248;-59
2022/04/29 00:19:26;;;;;;;7.10;4.90;;;9.00;99.90;;;;;;5052908;28;20206;-59
2022/04/29 00:21:52;;;;;;;6.80;4.87;;;8.90;99.90;;;;;;5052694;28;20216;-59
2022/04/29 00:24:19;;;;;;;6.20;3.97;;;8.90;99.90;;;;;;5052690;28;20585;-59
2022/04/29 00:26:46;;;;;;;5.67;4.57;;;8.90;99.90;;;;;;5052542;28;20275;-60
2022/04/29 00:29:14;;;;;;;5.97;4.93;;;8.90;99.90;;;;;;5052331;28;20296;-59
2022/04/29 00:31:41;;;;;;;6.33;3.80;;;8.80;99.90;;;;;;5052749;28;20213;-59
2022/04/29 00:34:07;;;;;;;4.70;4.20;;;8.80;99.90;;;;;;5052209;28;20729;-58
2022/04/29 00:36:34;;;;;;;5.40;4.13;;;8.80;99.90;;;;;;5052346;28;20618;-59
2022/04/29 00:39:01;;;;;;;4.70;4.17;;;8.70;99.90;;;;;;5051811;28;20213;-59
2022/04/29 00:41:28;;;;;;;6.37;4.90;;;8.70;99.90;;;;;;5052412;28;20214;-59
2022/04/29 00:44:02;;;;;;;4.60;3.87;;;8.70;99.90;;;;;;5052270;28;20205;-59
2022/04/29 00:46:34;;;;;;;5.83;4.53;;;8.60;99.90;;;;;;5052118;28;20651;-59
2022/04/29 00:49:01;;;;;;;5.93;4.53;;;8.60;99.90;;;;;;5052051;28;20206;-59
2022/04/29 00:51:28;;;;;;;4.40;4.00;;;8.70;99.90;;;;;;5052142;28;20205;-59
2022/04/29 00:53:56;;;;;;;6.17;3.83;;;8.60;99.90;;;;;;5051900;28;20216;-58
2022/04/29 00:56:23;;;;;;;8.13;4.57;;;8.60;99.90;;;;;;5051108;28;20308;-59
2022/04/29 00:58:54;;;;;;;5.07;3.80;;;8.60;99.90;;;;;;5051778;28;20213;-58
2022/04/29 01:01:24;;;;;;;6.60;3.93;;;8.60;99.90;;;;;;5052139;28;20232;-58
2022/04/29 01:03:54;;;;;;;5.40;4.00;;;8.50;99.90;;;;;;5053201;28;20209;-58
2022/04/29 01:06:21;;;;;;;4.40;3.97;;;8.60;99.90;;;;;;5052404;28;20245;-59
2022/04/29 01:08:48;;;;;;;4.83;4.00;;;8.60;99.90;;;;;;5051460;28;20209;-58
2022/04/29 01:11:14;;;;;;;4.43;4.03;;;8.60;99.90;;;;;;5051830;28;20201;-59
2022/04/29 01:13:41;;;;;;;4.40;3.70;;;8.60;99.90;;;;;;5051824;28;20217;-59
2022/04/29 01:16:08;;;;;;;4.97;3.77;;;8.60;99.90;;;;;;5051596;28;20237;-59
2022/04/29 01:18:37;;;;;;;5.77;3.87;;;8.60;99.90;;;;;;5051651;28;20209;-60
2022/04/29 01:21:06;;;;;;;4.63;4.23;;;8.60;99.90;;;;;;5051769;28;20650;-59
2022/04/29 01:23:35;;;;;;;6.73;4.27;;;8.50;99.90;;;;;;5051576;28;20665;-58
2022/04/29 01:26:02;;;;;;;4.33;3.90;;;8.40;99.90;;;;;;5051780;28;20316;-59
2022/04/29 01:28:30;;;;;;;4.80;4.27;;;8.40;99.90;;;;;;5051784;28;20255;-58
2022/04/29 01:30:58;;;;;;;4.60;4.20;;;8.40;99.90;;;;;;5051803;28;20205;-58
2022/04/29 01:33:28;;;;;;;4.03;3.63;;;8.40;99.90;;;;;;5052091;28;20209;-58
2022/04/29 01:35:55;;;;;;;4.70;4.30;;;8.30;99.90;;;;;;5051686;28;20229;-58
2022/04/29 01:38:21;;;;;;;6.40;4.00;;;8.40;99.90;;;;;;5051628;28;20214;-58
2022/04/29 01:40:49;;;;;;;4.73;3.83;;;8.30;99.90;;;;;;5051898;28;20202;-58
2022/04/29 01:43:17;;;;;;;5.23;3.80;;;8.40;99.90;;;;;;5051968;28;20213;-58
2022/04/29 01:45:44;;;;;;;5.40;4.20;;;8.30;99.90;;;;;;5051921;28;20221;-59
2022/04/29 01:48:11;;;;;;;5.90;3.90;;;8.40;99.90;;;;;;5051475;28;20625;-58
2022/04/29 01:50:37;;;;;;;6.07;4.30;;;8.30;99.90;;;;;;5051708;28;20213;-58
2022/04/29 01:53:04;;;;;;;4.30;3.90;;;8.30;99.90;;;;;;5051798;28;20213;-58
2022/04/29 01:55:31;;;;;;;5.17;4.07;;;8.30;99.90;;;;;;5076040;22;20226;-58
2022/04/29 01:57:59;;;;;;;7.27;4.10;;;8.30;99.90;;;;;;5042671;28;20202;-58
2022/04/29 02:00:26;;;;;;;4.80;3.70;;;8.30;99.90;;;;;;5051332;28;20206;-58
2022/04/29 02:02:55;;;;;;;5.13;4.30;;;8.20;99.90;;;;;;5051062;28;20263;-58
2022/04/29 02:05:22;;;;;;;4.23;3.83;;;8.20;99.90;;;;;;5051265;28;20226;-58
2022/04/29 02:07:49;;;;;;;6.57;4.27;;;8.20;99.90;;;;;;5051576;28;20214;-58
2022/04/29 02:10:16;;;;;;;5.73;4.03;;;8.20;99.90;;;;;;5054864;28;20213;-58
2022/04/29 02:12:43;;;;;;;5.20;4.70;;;8.20;99.90;;;;;;5054752;28;20206;-58
2022/04/29 02:15:11;;;;;;;5.30;4.03;;;8.20;99.90;;;;;;5054558;28;20287;-58
2022/04/29 02:17:39;;;;;;;5.83;4.77;;;8.20;99.90;;;;;;5054220;28;20310;-58
2022/04/29 02:20:06;;;;;;;4.50;4.10;;;8.20;99.90;;;;;;5054768;28;20287;-58
2022/04/29 02:22:33;;;;;;;5.60;4.73;;;8.20;99.90;;;;;;5054607;28;20255;-58
2022/04/29 02:25:00;;;;;;;4.50;3.80;;;8.20;99.90;;;;;;5054637;28;20259;-57
2022/04/29 02:27:26;;;;;;;4.50;3.73;;;8.20;99.90;;;;;;5054250;28;20952;-58
2022/04/29 02:29:53;;;;;;;4.93;4.43;;;8.10;99.90;;;;;;5054378;28;20730;-58
2022/04/29 02:32:21;;;;;;;4.80;4.30;;;8.10;99.90;;;;;;5054205;28;20696;-57
2022/04/29 02:34:48;;;;;;;4.93;4.43;;;8.10;99.90;;;;;;5054351;28;20288;-58
2022/04/29 02:37:15;;;;;;;6.57;4.63;;;8.10;99.90;;;;;;5054079;28;20237;-58
2022/04/29 02:39:42;;;;;;;5.47;4.40;;;8.10;99.90;;;;;;5054288;28;20209;-60
2022/04/29 02:42:09;;;;;;;4.63;4.23;;;8.00;99.90;;;;;;5054220;28;20210;-58
2022/04/29 02:44:36;;;;;;;5.03;3.90;;;8.00;99.90;;;;;;5054064;28;20286;-58
2022/04/29 02:47:09;;;;;;;4.40;4.00;;;8.00;99.90;;;;;;5054065;28;20229;-58
2022/04/29 02:49:38;;;;;;;6.87;4.17;;;7.90;99.90;;;;;;5054248;28;20206;-59
2022/04/29 02:52:06;;;;;;;5.23;4.37;;;7.90;99.90;;;;;;5053982;28;20636;-59
2022/04/29 02:54:32;;;;;;;5.97;4.30;;;7.90;99.90;;;;;;5053992;28;20209;-59
2022/04/29 02:56:59;;;;;;;6.40;4.77;;;7.90;99.90;;;;;;5053594;28;20229;-59
2022/04/29 02:59:26;;;;;;;6.80;4.40;;;7.90;99.90;;;;;;5053512;28;20263;-60
2022/04/29 03:01:53;;;;;;;4.80;4.23;;;7.80;99.90;;;;;;5053874;28;20263;-60
2022/04/29 03:04:20;;;;;;;5.43;4.23;;;7.70;99.90;;;;;;5053970;28;20301;-60
2022/04/29 03:06:48;;;;;;;6.60;4.60;;;7.70;99.90;;;;;;5053749;28;20620;-60
2022/04/29 03:09:15;;;;;;;4.70;4.20;;;7.70;99.90;;;;;;5053665;28;20630;-60
2022/04/29 03:11:42;;;;;;;5.40;4.53;;;7.70;99.90;;;;;;5053546;28;20636;-60
2022/04/29 03:14:08;;;;;;;4.93;4.43;;;7.60;99.90;;;;;;5053518;28;20209;-60
2022/04/29 03:16:35;;;;;;;5.20;4.37;;;7.70;99.90;;;;;;5053436;28;20651;-59
2022/04/29 03:19:02;;;;;;;5.20;4.40;;;7.60;99.90;;;;;;5053027;28;20287;-60
2022/04/29 03:21:29;;;;;;;5.40;4.37;;;7.70;99.90;;;;;;5052762;28;20803;-60
2022/04/29 03:23:57;;;;;;;4.67;4.20;;;7.70;99.90;;;;;;5053569;28;20206;-59
2022/04/29 03:26:23;;;;;;;5.10;4.40;;;7.70;99.90;;;;;;5053337;28;20275;-60
2022/04/29 03:28:50;;;;;;;5.10;4.60;;;7.70;99.90;;;;;;5052990;28;20696;-60
2022/04/29 03:31:17;;;;;;;4.70;4.30;;;7.60;99.90;;;;;;5053424;28;20241;-59
2022/04/29 03:33:44;;;;;;;5.93;4.10;;;7.60;99.90;;;;;;5053266;28;20241;-60
2022/04/29 03:36:10;;;;;;;5.13;4.33;;;7.60;99.90;;;;;;5053019;28;20225;-60
2022/04/29 03:38:37;;;;;;;5.67;4.60;;;7.60;99.90;;;;;;5052912;28;20216;-60
2022/04/29 03:41:05;;;;;;;6.70;4.90;;;7.60;99.90;;;;;;5053180;28;20201;-60
2022/04/29 03:43:32;;;;;;;5.70;4.60;;;7.60;99.90;;;;;;5053129;28;20217;-60
2022/04/29 03:45:59;;;;;;;6.93;4.40;;;7.50;99.90;;;;;;5052881;28;20225;-60
2022/04/29 03:48:26;;;;;;;4.63;4.23;;;7.50;99.90;;;;;;5052962;28;20205;-62
2022/04/29 03:50:53;;;;;;;5.23;4.73;;;7.40;99.90;;;;;;5053323;28;20209;-59
2022/04/29 03:53:23;;;;;;;5.27;4.70;;;7.30;99.90;;;;;;5052694;28;20680;-59
2022/04/29 03:55:50;;;;;;;5.93;4.93;;;7.30;99.90;;;;;;5052821;28;20229;-58
2022/04/29 03:58:18;;;;;;;8.83;5.13;;;7.30;99.90;;;;;;5052478;28;20673;-60
2022/04/29 04:00:44;;;;;;;5.97;4.80;;;7.30;99.90;;;;;;5052726;28;20633;-59
2022/04/29 04:03:11;;;;;;;7.20;5.37;;;7.40;99.90;;;;;;5052684;28;20255;-60
2022/04/29 04:06:49;;;;;;;5.43;4.93;;;7.40;99.90;;;;;;5052493;28;20597;-59
2022/04/29 04:08:24;;;;;;;7.33;4.90;;;7.40;99.90;;;;;;5052324;28;20259;-60
2022/04/29 04:10:51;;;;;;;5.17;4.30;;;7.40;99.90;;;;;;5052923;28;20584;-59
2022/04/29 04:13:19;;;;;;;5.30;4.80;;;7.40;99.90;;;;;;5052394;28;20665;-60
2022/04/29 04:15:46;;;;;;;7.90;5.10;;;7.40;99.90;;;;;;5052102;28;20229;-59
2022/04/29 04:18:12;;;;;;;5.17;4.60;;;7.40;99.90;;;;;;5052020;28;20677;-60
2022/04/29 04:20:39;;;;;;;5.40;4.90;;;7.50;99.90;;;;;;5052238;28;20309;-59
2022/04/29 04:23:06;;;;;;;5.97;5.10;;;7.50;99.90;;;;;;5052446;28;20288;-59
2022/04/29 04:25:32;;;;;;;5.37;4.87;;;7.50;99.90;;;;;;5052255;28;20612;-60
2022/04/29 04:27:59;;;;;;;7.40;5.20;;;7.50;99.90;;;;;;5052149;28;20205;-60
2022/04/29 04:30:27;;;;;;;5.70;5.00;;;7.50;99.90;;;;;;5052386;28;20327;-60
2022/04/29 04:32:54;;;;;;;6.30;5.00;;;7.60;99.90;;;;;;5051941;28;20327;-59
2022/04/29 04:35:21;;;;;;;5.27;4.73;;;7.60;99.90;;;;;;5052421;28;20692;-60
2022/04/29 04:37:48;;;;;;;6.47;4.57;;;7.80;99.90;;;;;;5052140;28;20210;-60
2022/04/29 04:40:15;;;;;;;6.97;5.10;;;7.90;99.90;;;;;;5052174;28;20244;-60
2022/04/29 04:42:44;;;;;;;6.53;4.77;;;8.10;99.90;;;;;;5051897;28;20678;-60
2022/04/29 04:45:11;;;;;;;7.23;4.70;;;8.10;99.90;;;;;;5051806;28;20222;-59
2022/04/29 04:47:39;;;;;;;5.33;4.80;;;8.20;99.90;;;;;;5051322;28;20665;-60
2022/04/29 04:50:06;;;;;;;7.93;5.20;;;8.40;99.90;;;;;;5051832;28;20642;-59
2022/04/29 04:52:33;;;;;;;6.20;4.90;;;8.60;99.90;;;;;;5051850;28;20218;-59
2022/04/29 04:55:04;;;;;;;7.10;4.93;;;8.80;99.90;;;;;;5051809;28;20216;-59
2022/04/29 04:57:31;;;;;;;6.50;4.93;;;9.00;99.90;;;;;;5051502;28;20666;-60
2022/04/29 04:59:58;;;;;;;5.77;4.53;;;9.10;99.90;;;;;;5051521;28;20201;-59
2022/04/29 05:02:24;;;;;;;10.80;5.00;;;9.20;99.90;;;;;;5051423;28;20221;-59
2022/04/29 05:04:56;;;;;;;6.60;4.53;;;9.40;99.90;;;;;;5051503;28;20205;-59
2022/04/29 05:07:23;;;;;;;9.40;4.60;;;9.60;99.90;;;;;;5051803;28;20210;-57
2022/04/29 05:09:50;;;;;;;5.80;5.17;;;9.80;99.90;;;;;;5051442;28;20572;-58
2022/04/29 05:12:16;;;;;;;6.87;5.23;;;9.90;99.90;;;;;;5051657;28;20279;-57
2022/04/29 05:14:43;;;;;;;7.87;4.93;;;10.10;99.90;;;;;;5051848;28;20217;-58
2022/04/29 05:17:10;;;;;;;15.27;10.70;;;10.30;99.90;;;;;;5051486;28;20233;-57
2022/04/29 05:19:36;;;;;;;9.87;7.57;;;10.50;99.90;;;;;;5051504;28;20209;-58
2022/04/29 05:22:05;;;;;;;9.87;7.27;;;10.60;99.90;;;;;;5051532;28;20209;-57
2022/04/29 05:24:32;;;;;;;16.70;11.30;;;10.80;99.90;;;;;;5051481;28;20283;-57
2022/04/29 05:27:01;;;;;;;25.47;18.20;;;10.90;99.90;;;;;;5051391;28;20221;-57
2022/04/29 05:29:27;;;;;;;11.93;9.93;;;11.10;99.90;;;;;;5051157;28;20205;-57
2022/04/29 05:31:54;;;;;;;7.30;5.83;;;11.20;99.90;;;;;;5051561;28;20205;-57
2022/04/29 05:34:21;;;;;;;8.80;4.80;;;11.30;99.90;;;;;;5051523;28;20208;-57
2022/04/29 05:36:47;;;;;;;9.87;4.80;;;11.30;99.90;;;;;;5051489;28;20225;-57
2022/04/29 05:42:15;;;;;;;7.50;4.57;;;11.80;99.90;;;;;;5012528;28;20249;-57
2022/04/29 05:44:42;;;;;;;12.30;5.27;;;12.00;99.90;;;;;;5054444;28;20757;-58
2022/04/29 05:47:10;;;;;;;9.87;5.00;;;12.20;99.90;;;;;;5054968;28;20221;-57
2022/04/29 05:49:37;;;;;;;7.87;5.17;;;12.30;99.90;;;;;;5054969;28;20210;-57
2022/04/29 05:52:05;;;;;;;6.73;5.33;;;12.50;99.90;;;;;;5055102;28;20263;-57
2022/04/29 05:54:34;;;;;;;7.67;5.57;;;12.70;99.90;;;;;;5055153;28;20293;-58
2022/04/29 05:57:03;;;;;;;7.30;5.47;;;13.00;99.90;;;;;;5054776;28;20316;-57
2022/04/29 05:59:31;;;;;;;7.87;5.70;;;13.50;99.90;;;;;;5054742;28;20260;-58
2022/04/29 06:01:58;;;;;;;6.40;5.10;;;14.10;99.90;;;;;;5055099;28;20205;-57
2022/04/29 06:04:25;;;;;;;7.07;4.67;;;14.70;99.90;;;;;;5054670;28;20677;-57
2022/04/29 06:06:52;;;;;;;7.23;5.03;;;15.00;99.90;;;;;;5054740;28;20225;-58
2022/04/29 06:09:19;;;;;;;6.53;5.00;;;15.10;99.90;;;;;;5054653;28;20236;-57
2022/04/29 06:11:47;;;;;;;9.30;5.10;;;15.00;99.90;;;;;;5054671;28;20248;-57
2022/04/29 06:14:13;;;;;;;10.60;5.07;;;15.00;99.90;;;;;;5054835;28;20263;-57
2022/04/29 06:16:40;;;;;;;5.53;4.93;;;15.20;99.90;;;;;;5054183;28;20585;-58
2022/04/29 06:19:07;;;;;;;6.87;4.97;;;15.70;99.90;;;;;;5054053;28;20359;-58
2022/04/29 06:21:34;;;;;;;5.20;4.50;;;16.50;98.80;;;;;;5054259;28;20217;-57
2022/04/29 06:24:00;;;;;;;6.33;4.90;;;17.00;97.60;;;;;;5054569;28;20209;-58
2022/04/29 06:26:27;;;;;;;6.80;4.50;;;17.60;96.80;;;;;;5054248;28;20595;-58
2022/04/29 06:28:55;;;;;;;8.13;4.80;;;18.20;95.60;;;;;;5054201;28;20604;-58
2022/04/29 06:31:21;;;;;;;7.40;4.68;;;18.50;94.20;;;;;;5054092;28;20575;-58
2022/04/29 06:33:48;;;;;;;6.75;4.75;;;18.60;93.50;;;;;;5054062;28;20601;-58
2022/04/29 06:36:15;;;;;;;4.80;4.30;;;18.60;93.50;;;;;;5053953;28;20717;-58
2022/04/29 06:38:42;;;;;;;8.40;4.47;;;19.30;93.00;;;;;;5054084;28;20283;-58
2022/04/29 06:41:08;;;;;;;5.88;4.57;;;20.00;91.30;;;;;;5054751;28;20205;-59
2022/04/29 06:43:35;;;;;;;7.68;4.80;;;20.40;90.90;;;;;;5054086;28;20209;-59
2022/04/29 06:46:03;;;;;;;9.93;5.13;;;21.60;87.20;;;;;;5054129;28;20229;-59
2022/04/29 06:48:30;;;;;;;7.25;4.32;;;23.30;84.30;;;;;;5053609;28;20213;-59
2022/04/29 06:50:58;;;;;;;8.52;4.57;;;25.00;77.40;;;;;;5054214;28;20336;-59
2022/04/29 06:53:25;;;;;;;6.05;4.35;;;26.40;71.70;;;;;;5054019;28;20567;-59
2022/04/29 06:55:51;;;;;;;6.00;4.20;;;27.20;66.30;;;;;;5052293;28;20588;-60
2022/04/29 06:58:18;;;;;;;5.97;4.40;;;27.80;64.10;;;;;;5053598;28;20260;-59
2022/04/29 07:00:45;;;;;;;6.82;5.38;;;28.10;60.40;;;;;;5053876;28;20251;-57
2022/04/29 07:03:13;;;;;;;6.05;4.32;;;28.30;60.30;;;;;;5053810;28;20206;-58
2022/04/29 07:05:41;;;;;;;5.35;4.45;;;28.50;57.60;;;;;;5054038;28;20229;-58
2022/04/29 07:08:09;;;;;;;6.38;4.40;;;28.50;58.30;;;;;;5053697;28;20206;-58
2022/04/29 07:10:36;;;;;;;7.30;4.20;;;27.90;56.50;;;;;;5053497;28;20633;-57
2022/04/29 07:13:03;;;;;;;8.07;4.40;;;26.30;59.40;;;;;;5053736;28;20220;-57
2022/04/29 07:15:30;;;;;;;8.13;4.45;;;25.00;61.90;;;;;;5053742;28;20236;-58
2022/04/29 07:17:57;;;;;;;7.43;5.05;;;25.30;61.40;;;;;;5053228;28;20324;-58
2022/04/29 07:20:25;;;;;;;6.30;5.00;;;24.40;62.00;;;;;;5053676;28;20213;-61
2022/04/29 07:22:51;;;;;;;6.82;4.53;;;23.30;64.50;;;;;;5053688;28;20201;-57
2022/04/29 07:25:19;;;;;;;10.00;5.45;;;22.80;66.10;;;;;;5053141;28;20287;-58
2022/04/29 07:27:48;;;;;;;10.50;4.50;;;22.90;68.20;;;;;;5052843;28;20251;-58
2022/04/29 07:30:15;;;;;;;10.55;5.45;;;23.70;66.10;;;;;;5052942;28;20297;-58
2022/04/29 07:32:42;;;;;;;7.43;5.07;;;24.40;65.50;;;;;;5053043;28;20677;-59
2022/04/29 07:43:23;;;;;;;8.98;5.30;;;26.20;61.50;;;;;;5052932;28;20236;-58
2022/04/29 07:45:51;;;;;;;7.63;5.78;;;26.60;60.20;;;;;;5052661;28;20226;-57
2022/04/29 07:48:18;;;;;;;9.48;5.32;;;26.60;60.80;;;;;;5052309;28;20297;-57
2022/04/29 07:50:45;;;;;;;11.35;5.80;;;26.60;60.50;;;;;;5052678;28;20213;-58
2022/04/29 07:53:13;;;;;;;6.63;4.78;;;26.30;60.00;;;;;;5052911;28;20209;-57
2022/04/29 07:55:40;;;;;;;9.07;5.15;;;25.20;62.80;;;;;;5063609;22;20286;-57
2022/04/29 07:58:08;;;;;;;7.53;4.85;;;24.50;66.10;;;;;;5046882;28;20455;-63
2022/04/29 08:00:37;;;;;;;21.15;14.85;;;24.70;65.40;;;;;;5052618;28;20205;-61
2022/04/29 08:03:04;;;;;;;7.97;5.00;;;25.10;64.20;;;;;;5052762;28;20669;-60
2022/04/29 08:05:32;;;;;;;6.90;5.47;;;25.40;64.30;;;;;;5052252;28;20214;-61
2022/04/29 08:08:00;;;;;;;10.27;4.95;;;25.80;63.20;;;;;;5051974;28;20213;-58
2022/04/29 08:10:29;;;;;;;5.63;4.70;;;26.00;61.90;;;;;;5053008;28;20578;-63
2022/04/29 08:12:57;;;;;;;6.85;4.75;;;25.80;59.20;;;;;;5052899;28;20202;-60
2022/04/29 08:15:24;;;;;;;6.00;4.80;;;25.00;59.70;;;;;;5052572;28;20206;-60
2022/04/29 08:17:51;;;;;;;6.50;4.90;;;24.50;61.30;;;;;;5052049;28;20229;-63
2022/04/29 08:20:18;;;;;;;7.57;5.25;;;23.90;62.70;;;;;;5052022;28;20279;-60
2022/04/29 08:22:44;;;;;;;5.85;4.60;;;23.50;65.00;;;;;;5052582;28;20209;-60
2022/04/29 08:25:11;;;;;;;9.52;4.70;;;22.70;70.50;;;;;;5052255;28;20676;-59
2022/04/29 08:27:39;;;;;;;5.20;4.70;;;22.20;71.30;;;;;;5052104;28;20765;-58
2022/04/29 08:30:08;;;;;;;8.07;5.07;;;21.90;71.30;;;;;;5051745;28;20205;-57
2022/04/29 08:32:39;;;;;;;7.43;4.57;;;21.60;72.50;;;;;;5051044;28;20232;-63
2022/04/29 08:35:07;;;;;;;7.32;4.82;;;21.40;72.30;;;;;;5052255;28;20679;-57
2022/04/29 08:37:33;;;;;;;7.85;4.65;;;21.20;72.90;;;;;;5052181;28;20240;-56
2022/04/29 08:40:00;;;;;;;7.18;4.93;;;21.20;73.00;;;;;;5051974;28;20205;-56
2022/04/29 08:42:28;;;;;;;5.13;4.53;;;21.20;72.80;;;;;;5051765;28;20630;-58
2022/04/29 08:44:59;;;;;;;6.18;5.25;;;21.30;72.70;;;;;;5052214;28;20235;-56
2022/04/29 08:47:27;;;;;;;7.57;4.88;;;21.30;72.30;;;;;;5051968;28;20225;-55
2022/04/29 08:49:55;;;;;;;5.15;4.47;;;21.10;72.30;;;;;;5051839;28;20206;-58
2022/04/29 08:52:22;;;;;;;6.28;4.88;;;20.30;73.40;;;;;;5051977;28;20205;-57
2022/04/29 09:00:23;;;;;;;6.18;4.95;;;19.20;78.70;;;;;;5030494;28;20201;-56
2022/04/29 09:02:50;;;;;;;7.60;5.28;;;19.60;78.10;;;;;;5051564;28;20235;-56
2022/04/29 09:05:17;;;;;;;5.72;4.68;;;19.90;77.10;;;;;;5051674;28;20584;-56
2022/04/29 09:07:55;;;;;;;8.07;5.00;;;20.20;76.10;;;;;;5051525;28;20209;-57
2022/04/29 09:10:23;;;;;;;7.50;4.93;;;20.20;76.20;;;;;;5051606;28;20213;-57
2022/04/29 09:12:51;;;;;;;5.40;4.43;;;20.50;73.40;;;;;;5051725;28;20206;-56
2022/04/29 09:15:17;;;;;;;5.35;4.65;;;20.70;72.10;;;;;;5051804;28;20205;-56
2022/04/29 09:17:47;;;;;;;6.50;4.68;;;20.90;72.20;;;;;;5051743;28;20295;-56
2022/04/29 09:20:16;;;;;;;7.25;4.22;;;21.20;69.60;;;;;;5055513;28;20205;-57
2022/04/29 09:22:46;;;;;;;7.25;4.40;;;21.10;68.60;;;;;;5055656;28;20669;-57
2022/04/29 09:25:13;;;;;;;8.05;4.32;;;20.90;67.60;;;;;;5055984;28;20201;-57
2022/04/29 09:27:59;;;;;;;4.70;3.83;;;21.00;66.40;;;;;;5055621;28;20201;-56
2022/04/29 09:30:34;;;;;;;5.43;4.20;;;21.20;65.90;;;;;;5055594;28;20571;-57
2022/04/29 09:33:02;;;;;;;4.97;3.67;;;21.40;65.00;;;;;;5055392;28;20215;-57
2022/04/29 09:35:36;;;;;;;4.78;3.90;;;21.40;62.40;;;;;;5055644;28;20343;-56
2022/04/29 09:40:48;;;;;;;8.68;3.58;;;21.30;63.10;;;;;;5055402;28;20311;-56
2022/04/29 09:43:15;;;;;;;4.50;3.70;;;21.70;61.10;;;;;;5055187;28;20212;-56
2022/04/29 09:45:41;;;;;;;6.40;3.58;;;21.90;58.30;;;;;;5055091;28;20229;-56
2022/04/29 09:48:10;;;;;;;5.85;3.60;;;21.70;58.80;;;;;;5055094;28;20255;-56
2022/04/29 09:50:48;;;;;;;8.48;3.45;;;21.70;59.60;;;;;;5054948;28;20622;-57
2022/04/29 09:53:20;;;;;;;5.68;3.25;;;21.90;59.20;;;;;;5055229;28;20335;-57
2022/04/29 09:56:08;;;;;;;5.38;3.22;;;22.00;57.30;;;;;;5054678;28;20229;-57
2022/04/29 09:58:34;;;;;;;5.05;3.70;;;22.20;58.00;;;;;;5055002;28;20229;-56
2022/04/29 10:01:01;;;;;;;6.43;3.50;;;22.20;56.90;;;;;;5054919;28;20670;-57
2022/04/29 10:03:29;;;;;;;4.18;2.80;;;22.30;56.20;;;;;;5055035;28;20209;-57
2022/04/29 10:06:00;;;;;;;3.85;2.85;;;22.40;56.30;;;;;;5054787;28;20226;-56
2022/04/29 10:08:28;;;;;;;6.00;3.55;;;22.50;56.90;;;;;;5054509;28;20577;-56
2022/04/29 10:10:56;;;;;;;5.15;3.50;;;22.80;57.20;;;;;;5054599;28;20205;-56
2022/04/29 10:13:24;;;;;;;7.38;3.42;;;23.30;56.00;;;;;;5054242;28;20296;-55
2022/04/29 10:15:53;;;;;;;3.38;3.08;;;23.50;55.80;;;;;;5054460;28;20661;-58
2022/04/29 10:21:16;;;;;;;4.47;2.90;;;24.00;53.70;;;;;;5054486;28;20283;-58
2022/04/29 10:23:48;;;;;;;4.53;3.22;;;24.10;53.80;;;;;;5054631;28;20201;-57
2022/04/29 10:26:16;;;;;;;4.07;3.17;;;24.10;53.40;;;;;;5054412;28;20712;-56
2022/04/29 10:28:43;;;;;;;7.43;3.15;;;23.80;54.20;;;;;;5053821;28;20293;-57
2022/04/29 10:31:17;;;;;;;3.42;3.00;;;23.80;54.60;;;;;;5054423;28;20256;-58
2022/04/29 10:33:44;;;;;;;5.10;3.92;;;23.90;54.10;;;;;;5054364;28;20264;-57
2022/04/29 10:36:14;;;;;;;5.32;2.50;;;23.90;53.90;;;;;;5054563;28;20297;-57
2022/04/29 10:38:46;;;;;;;2.60;2.40;;;23.90;53.10;;;;;;5054041;28;20230;-57
2022/04/29 10:41:15;;;;;;;3.95;2.38;;;23.70;51.00;;;;;;5054093;28;20205;-57
2022/04/29 10:43:46;;;;;;;5.38;2.58;;;23.40;51.90;;;;;;5054106;28;20712;-58
2022/04/29 10:46:21;;;;;;;4.40;2.60;;;23.10;53.10;;;;;;5053950;28;20361;-58
2022/04/29 10:48:48;;;;;;;5.30;2.50;;;22.80;52.30;;;;;;5054049;28;20258;-58
2022/04/29 10:51:18;;;;;;;3.55;2.30;;;22.50;52.90;;;;;;5053991;28;20209;-59
2022/04/29 10:53:46;;;;;;;4.32;2.28;;;22.40;53.10;;;;;;5053966;28;20213;-58
2022/04/29 10:56:38;;;;;;;3.72;2.35;;;22.50;53.20;;;;;;5053446;28;20255;-58
2022/04/29 10:59:18;;;;;;;3.03;2.13;;;22.60;52.00;;;;;;5053557;28;20229;-58
2022/04/29 11:01:50;;;;;;;4.55;2.20;;;22.60;51.60;;;;;;5053866;28;20205;-57
2022/04/29 11:04:42;;;;;;;3.90;2.13;;;22.50;52.40;;;;;;5053769;28;20682;-57
2022/04/29 11:07:42;;;;;;;4.95;2.40;;;22.40;52.60;;;;;;5053838;28;20232;-56
2022/04/29 11:10:10;;;;;;;4.50;2.53;;;22.10;52.50;;;;;;5053246;28;20634;-58
2022/04/29 11:12:39;;;;;;;3.97;2.38;;;21.90;53.10;;;;;;5053551;28;20210;-57
2022/04/29 11:15:14;;;;;;;2.58;2.38;;;22.00;52.80;;;;;;5053742;28;20297;-57
2022/04/29 11:17:42;;;;;;;4.03;2.17;;;22.10;52.40;;;;;;5053666;28;20225;-56
2022/04/29 11:20:20;;;;;;;2.45;2.15;;;22.10;53.20;;;;;;5053458;28;20205;-57
2022/04/29 11:25:52;;;;;;;2.60;2.38;;;22.00;53.90;;;;;;5053168;28;20229;-57
2022/04/29 11:28:19;;;;;;;3.08;2.30;;;22.20;52.50;;;;;;5053166;28;20549;-56
2022/04/29 11:30:47;;;;;;;5.93;2.58;;;22.50;52.20;;;;;;5053216;28;20604;-57
2022/04/29 11:33:14;;;;;;;5.70;2.47;;;22.70;51.70;;;;;;5053237;28;20202;-56
2022/04/29 11:35:42;;;;;;;3.50;2.40;;;22.80;51.80;;;;;;5053007;28;20592;-56
2022/04/29 11:38:10;;;;;;;4.32;2.38;;;23.00;51.70;;;;;;5052672;28;20225;-56
2022/04/29 11:40:41;;;;;;;4.47;2.50;;;23.30;51.20;;;;;;5052571;28;20202;-57
2022/04/29 11:43:11;;;;;;;4.22;2.30;;;23.30;50.20;;;;;;5053083;28;20206;-56
2022/04/29 11:45:40;;;;;;;2.60;2.40;;;23.30;50.50;;;;;;5052965;28;20240;-57
2022/04/29 11:48:09;;;;;;;3.53;1.98;;;23.40;50.50;;;;;;5052463;28;20205;-56
2022/04/29 11:50:37;;;;;;;4.78;2.33;;;23.40;50.50;;;;;;5052732;28;20205;-58
2022/04/29 11:53:05;;;;;;;3.50;2.38;;;23.40;50.30;;;;;;5052930;28;20255;-57
2022/04/29 11:55:33;;;;;;;3.60;2.03;;;23.50;50.60;;;;;;5052426;28;20617;-58
2022/04/29 11:58:00;;;;;;;2.42;1.83;;;23.60;50.10;;;;;;5052348;28;20221;-58
2022/04/29 12:00:28;;;;;;;2.38;1.92;;;23.80;50.70;;;;;;5052321;28;20205;-57
2022/04/29 12:02:56;;;;;;;5.50;2.50;;;23.90;50.20;;;;;;5052443;28;20206;-57
2022/04/29 12:05:24;;;;;;;3.88;2.08;;;24.00;50.00;;;;;;5052373;28;20677;-57
2022/04/29 12:07:50;;;;;;;4.07;2.08;;;24.00;50.00;;;;;;5052250;28;20609;-58
2022/04/29 12:10:18;;;;;;;3.47;2.28;;;24.10;49.30;;;;;;5052365;28;20216;-57
2022/04/29 12:12:47;;;;;;;2.35;2.08;;;24.30;49.50;;;;;;5052792;28;20209;-57
2022/04/29 12:15:18;;;;;;;6.00;2.08;;;24.40;49.40;;;;;;5052421;28;20244;-57
2022/04/29 12:17:45;;;;;;;2.45;1.73;;;24.40;49.30;;;;;;5052032;28;20216;-57
2022/04/29 12:20:17;;;;;;;4.90;2.15;;;24.40;49.50;;;;;;5052128;28;20212;-57
2022/04/29 12:22:47;;;;;;;3.85;2.08;;;24.70;49.00;;;;;;5052409;28;20292;-57
2022/04/29 12:25:27;;;;;;;3.50;2.13;;;24.80;49.80;;;;;;5052318;28;20202;-56
2022/04/29 12:28:09;;;;;;;3.63;2.60;;;24.90;49.80;;;;;;5052149;28;20235;-57
2022/04/29 12:36:07;;;;;;;6.72;3.15;;;25.70;48.30;;;;;;5051942;28;20262;-57
2022/04/29 12:38:35;;;;;;;2.90;2.45;;;25.80;48.50;;;;;;5051477;28;20312;-57
2022/04/29 12:41:15;;;;;;;3.50;2.33;;;25.50;48.30;;;;;;5052056;28;20297;-58
2022/04/29 12:43:43;;;;;;;2.30;2.03;;;25.50;49.10;;;;;;5052347;28;20574;-57
2022/04/29 12:46:14;;;;;;;3.50;1.95;;;25.30;49.70;;;;;;5052029;28;20229;-58
2022/04/29 12:48:47;;;;;;;2.72;2.40;;;24.80;50.00;;;;;;5051495;28;20280;-57
2022/04/29 12:51:22;;;;;;;2.85;2.40;;;24.40;49.80;;;;;;5051674;28;20205;-57
2022/04/29 12:53:49;;;;;;;3.25;2.38;;;24.00;51.30;;;;;;5051800;28;20204;-58
2022/04/29 12:56:23;;;;;;;4.85;2.45;;;23.70;51.50;;;;;;5051517;28;20244;-57
2022/04/29 12:58:51;;;;;;;2.92;2.50;;;23.70;51.80;;;;;;5051609;28;20283;-58
2022/04/29 13:01:18;;;;;;;3.22;2.47;;;23.80;52.50;;;;;;5051430;28;20308;-57
2022/04/29 13:03:49;;;;;;;4.28;2.40;;;23.80;51.20;;;;;;5051805;28;20290;-57
2022/04/29 13:06:17;;;;;;;3.58;2.55;;;23.70;50.80;;;;;;5051449;28;20257;-59
2022/04/29 13:08:45;;;;;;;3.25;2.40;;;23.50;51.30;;;;;;5051514;28;20205;-60
2022/04/29 13:11:16;;;;;;;3.22;2.40;;;23.50;51.70;;;;;;5051708;28;20205;-62
2022/04/29 13:13:43;;;;;;;3.08;2.55;;;23.40;51.70;;;;;;5051486;28;20229;-59
2022/04/29 13:16:11;;;;;;;3.38;2.40;;;23.20;51.70;;;;;;5051350;28;20279;-60
2022/04/29 13:18:38;;;;;;;3.63;2.05;;;23.30;52.30;;;;;;5051208;28;20274;-59
2022/04/29 13:21:08;;;;;;;3.95;2.25;;;23.40;52.10;;;;;;5051154;28;20669;-59
2022/04/29 13:23:35;;;;;;;3.85;2.42;;;23.70;51.50;;;;;;5051127;28;20247;-59
2022/04/29 13:26:03;;;;;;;5.90;3.13;;;23.80;51.50;;;;;;5051233;28;20226;-59
2022/04/29 13:28:31;;;;;;;5.32;2.50;;;23.70;50.90;;;;;;5051023;28;20662;-62